sensor_id;sensor_type;location;lat;lon;timestamp;P1;durP1;ratioP1;P2;durP2;ratioP2
71973;SDS011;59840;52.122;5.404;2023-01-29T00:01:53;13.40;;;7.20;;
71973;SDS011;59840;52.122;5.404;2023-01-29T00:04:21;14.48;;;7.60;;
71973;SDS011;59840;52.122;5.404;2023-01-29T00:06:48;13.63;;;7.20;;
71973;SDS011;59840;52.122;5.404;2023-01-29T00:09:15;14.67;;;7.23;;
71973;SDS011;59840;52.122;5.404;2023-01-29T00:11:41;15.63;;;7.78;;
71973;SDS011;59840;52.122;5.404;2023-01-29T00:14:08;14.43;;;7.88;;
71973;SDS011;59840;52.122;5.404;2023-01-29T00:16:35;14.55;;;7.65;;
71973;SDS011;59840;52.122;5.404;2023-01-29T00:19:02;15.35;;;7.57;;
71973;SDS011;59840;52.122;5.404;2023-01-29T00:21:29;13.50;;;6.77;;
71973;SDS011;59840;52.122;5.404;2023-01-29T00:23:57;14.27;;;7.43;;
71973;SDS011;59840;52.122;5.404;2023-01-29T00:26:24;14.80;;;7.18;;
71973;SDS011;59840;52.122;5.404;2023-01-29T00:28:51;15.52;;;7.35;;
71973;SDS011;59840;52.122;5.404;2023-01-29T00:31:19;14.82;;;7.82;;
71973;SDS011;59840;52.122;5.404;2023-01-29T00:33:47;15.63;;;7.27;;
71973;SDS011;59840;52.122;5.404;2023-01-29T00:36:15;13.30;;;7.13;;
71973;SDS011;59840;52.122;5.404;2023-01-29T00:38:43;17.90;;;7.63;;
71973;SDS011;59840;52.122;5.404;2023-01-29T00:41:12;13.75;;;7.05;;
71973;SDS011;59840;52.122;5.404;2023-01-29T00:43:59;15.73;;;7.95;;
71973;SDS011;59840;52.122;5.404;2023-01-29T00:46:45;14.00;;;6.93;;
71973;SDS011;59840;52.122;5.404;2023-01-29T00:49:12;16.60;;;7.70;;
71973;SDS011;59840;52.122;5.404;2023-01-29T00:51:39;14.15;;;7.10;;
71973;SDS011;59840;52.122;5.404;2023-01-29T00:54:05;12.18;;;6.72;;
71973;SDS011;59840;52.122;5.404;2023-01-29T00:56:33;12.38;;;6.90;;
71973;SDS011;59840;52.122;5.404;2023-01-29T00:59:01;12.70;;;6.77;;
71973;SDS011;59840;52.122;5.404;2023-01-29T01:01:29;15.63;;;7.47;;
71973;SDS011;59840;52.122;5.404;2023-01-29T01:04:14;16.13;;;7.80;;
71973;SDS011;59840;52.122;5.404;2023-01-29T01:06:41;15.65;;;7.03;;
71973;SDS011;59840;52.122;5.404;2023-01-29T01:09:08;12.48;;;7.43;;
71973;SDS011;59840;52.122;5.404;2023-01-29T01:11:54;14.50;;;6.77;;
71973;SDS011;59840;52.122;5.404;2023-01-29T01:14:21;13.55;;;6.90;;
71973;SDS011;59840;52.122;5.404;2023-01-29T01:16:48;15.57;;;7.95;;
71973;SDS011;59840;52.122;5.404;2023-01-29T01:19:14;12.63;;;6.50;;
71973;SDS011;59840;52.122;5.404;2023-01-29T01:21:41;14.00;;;7.32;;
71973;SDS011;59840;52.122;5.404;2023-01-29T01:24:13;14.63;;;7.60;;
71973;SDS011;59840;52.122;5.404;2023-01-29T01:26:40;11.43;;;6.20;;
71973;SDS011;59840;52.122;5.404;2023-01-29T01:29:07;14.75;;;6.90;;
71973;SDS011;59840;52.122;5.404;2023-01-29T01:31:34;14.48;;;6.60;;
71973;SDS011;59840;52.122;5.404;2023-01-29T01:34:01;14.15;;;7.20;;
71973;SDS011;59840;52.122;5.404;2023-01-29T01:36:27;13.30;;;6.67;;
71973;SDS011;59840;52.122;5.404;2023-01-29T01:38:54;12.13;;;6.32;;
71973;SDS011;59840;52.122;5.404;2023-01-29T01:41:20;15.15;;;7.28;;
71973;SDS011;59840;52.122;5.404;2023-01-29T01:46:32;11.55;;;6.68;;
71973;SDS011;59840;52.122;5.404;2023-01-29T01:49:06;13.00;;;6.33;;
71973;SDS011;59840;52.122;5.404;2023-01-29T01:51:45;12.25;;;6.13;;
71973;SDS011;59840;52.122;5.404;2023-01-29T01:56:50;12.48;;;6.93;;
71973;SDS011;59840;52.122;5.404;2023-01-29T01:59:20;11.40;;;6.22;;
71973;SDS011;59840;52.122;5.404;2023-01-29T02:01:49;17.00;;;7.00;;
71973;SDS011;59840;52.122;5.404;2023-01-29T02:04:20;11.70;;;6.20;;
71973;SDS011;59840;52.122;5.404;2023-01-29T02:07:08;13.57;;;7.30;;
71973;SDS011;59840;52.122;5.404;2023-01-29T02:10:06;11.52;;;6.68;;
71973;SDS011;59840;52.122;5.404;2023-01-29T02:12:37;11.88;;;6.40;;
71973;SDS011;59840;52.122;5.404;2023-01-29T02:15:04;11.80;;;6.50;;
71973;SDS011;59840;52.122;5.404;2023-01-29T02:17:31;14.20;;;6.63;;
71973;SDS011;59840;52.122;5.404;2023-01-29T02:22:39;12.57;;;6.72;;
71973;SDS011;59840;52.122;5.404;2023-01-29T02:30:57;14.88;;;6.93;;
71973;SDS011;59840;52.122;5.404;2023-01-29T02:36:17;12.95;;;6.45;;
71973;SDS011;59840;52.122;5.404;2023-01-29T02:41:51;13.67;;;6.73;;
71973;SDS011;59840;52.122;5.404;2023-01-29T02:44:21;17.45;;;7.95;;
71973;SDS011;59840;52.122;5.404;2023-01-29T02:49:49;11.95;;;6.63;;
71973;SDS011;59840;52.122;5.404;2023-01-29T02:52:22;16.42;;;7.57;;
71973;SDS011;59840;52.122;5.404;2023-01-29T02:54:55;13.80;;;6.97;;
71973;SDS011;59840;52.122;5.404;2023-01-29T02:57:29;15.10;;;7.22;;
71973;SDS011;59840;52.122;5.404;2023-01-29T03:08:11;19.40;;;7.43;;
71973;SDS011;59840;52.122;5.404;2023-01-29T03:10:48;13.63;;;7.05;;
71973;SDS011;59840;52.122;5.404;2023-01-29T03:13:20;12.77;;;7.45;;
71973;SDS011;59840;52.122;5.404;2023-01-29T03:16:03;14.40;;;7.30;;
71973;SDS011;59840;52.122;5.404;2023-01-29T03:18:37;16.55;;;7.63;;
71973;SDS011;59840;52.122;5.404;2023-01-29T03:21:13;18.03;;;8.13;;
71973;SDS011;59840;52.122;5.404;2023-01-29T03:24:13;14.05;;;7.43;;
71973;SDS011;59840;52.122;5.404;2023-01-29T03:27:01;14.95;;;7.57;;
71973;SDS011;59840;52.122;5.404;2023-01-29T03:29:49;14.45;;;8.15;;
71973;SDS011;59840;52.122;5.404;2023-01-29T03:32:37;15.07;;;7.60;;
71973;SDS011;59840;52.122;5.404;2023-01-29T03:35:05;18.17;;;7.80;;
71973;SDS011;59840;52.122;5.404;2023-01-29T03:37:37;18.17;;;7.75;;
71973;SDS011;59840;52.122;5.404;2023-01-29T03:40:08;15.23;;;8.43;;
71973;SDS011;59840;52.122;5.404;2023-01-29T03:48:04;18.30;;;8.87;;
71973;SDS011;59840;52.122;5.404;2023-01-29T03:50:37;16.73;;;7.85;;
71973;SDS011;59840;52.122;5.404;2023-01-29T03:53:27;22.65;;;8.15;;
71973;SDS011;59840;52.122;5.404;2023-01-29T03:56:03;16.33;;;8.05;;
71973;SDS011;59840;52.122;5.404;2023-01-29T04:06:57;15.82;;;8.65;;
71973;SDS011;59840;52.122;5.404;2023-01-29T04:09:31;16.10;;;8.13;;
71973;SDS011;59840;52.122;5.404;2023-01-29T04:12:04;15.23;;;8.25;;
71973;SDS011;59840;52.122;5.404;2023-01-29T04:14:35;17.63;;;8.30;;
71973;SDS011;59840;52.122;5.404;2023-01-29T04:17:37;18.67;;;8.93;;
71973;SDS011;59840;52.122;5.404;2023-01-29T04:20:00;17.27;;;8.45;;
71973;SDS011;59840;52.122;5.404;2023-01-29T04:22:30;15.60;;;8.48;;
71973;SDS011;59840;52.122;5.404;2023-01-29T04:24:59;16.08;;;8.43;;
71973;SDS011;59840;52.122;5.404;2023-01-29T04:33:10;17.35;;;8.40;;
71973;SDS011;59840;52.122;5.404;2023-01-29T04:44:42;17.17;;;8.52;;
71973;SDS011;59840;52.122;5.404;2023-01-29T04:47:26;17.05;;;8.50;;
71973;SDS011;59840;52.122;5.404;2023-01-29T05:00:58;16.90;;;8.57;;
71973;SDS011;59840;52.122;5.404;2023-01-29T05:03:27;17.85;;;7.72;;
71973;SDS011;59840;52.122;5.404;2023-01-29T05:05:56;15.57;;;7.63;;
71973;SDS011;59840;52.122;5.404;2023-01-29T05:08:24;19.43;;;8.57;;
71973;SDS011;59840;52.122;5.404;2023-01-29T05:10:54;20.27;;;9.07;;
71973;SDS011;59840;52.122;5.404;2023-01-29T05:13:24;17.75;;;8.52;;
71973;SDS011;59840;52.122;5.404;2023-01-29T05:15:54;19.42;;;8.48;;
71973;SDS011;59840;52.122;5.404;2023-01-29T05:18:25;19.25;;;9.50;;
71973;SDS011;59840;52.122;5.404;2023-01-29T05:20:52;18.20;;;8.90;;
71973;SDS011;59840;52.122;5.404;2023-01-29T05:23:22;20.00;;;8.77;;
71973;SDS011;59840;52.122;5.404;2023-01-29T05:25:49;19.33;;;9.73;;
71973;SDS011;59840;52.122;5.404;2023-01-29T05:28:17;16.67;;;8.90;;
71973;SDS011;59840;52.122;5.404;2023-01-29T05:30:48;18.30;;;9.20;;
71973;SDS011;59840;52.122;5.404;2023-01-29T05:33:35;16.77;;;8.43;;
71973;SDS011;59840;52.122;5.404;2023-01-29T05:36:01;15.75;;;8.40;;
71973;SDS011;59840;52.122;5.404;2023-01-29T05:38:29;20.15;;;9.48;;
71973;SDS011;59840;52.122;5.404;2023-01-29T05:40:57;17.85;;;9.05;;
71973;SDS011;59840;52.122;5.404;2023-01-29T05:43:24;19.65;;;9.20;;
71973;SDS011;59840;52.122;5.404;2023-01-29T05:45:55;17.43;;;8.33;;
71973;SDS011;59840;52.122;5.404;2023-01-29T05:48:23;16.23;;;9.00;;
71973;SDS011;59840;52.122;5.404;2023-01-29T05:50:51;18.33;;;9.15;;
71973;SDS011;59840;52.122;5.404;2023-01-29T05:53:17;17.42;;;8.65;;
71973;SDS011;59840;52.122;5.404;2023-01-29T05:55:44;15.63;;;8.52;;
71973;SDS011;59840;52.122;5.404;2023-01-29T05:58:11;14.90;;;8.20;;
71973;SDS011;59840;52.122;5.404;2023-01-29T06:00:38;19.75;;;9.38;;
71973;SDS011;59840;52.122;5.404;2023-01-29T06:03:05;14.85;;;8.60;;
71973;SDS011;59840;52.122;5.404;2023-01-29T06:05:32;16.27;;;8.43;;
71973;SDS011;59840;52.122;5.404;2023-01-29T06:07:59;17.15;;;8.40;;
71973;SDS011;59840;52.122;5.404;2023-01-29T06:10:25;15.80;;;8.90;;
71973;SDS011;59840;52.122;5.404;2023-01-29T06:12:52;17.27;;;8.75;;
71973;SDS011;59840;52.122;5.404;2023-01-29T06:15:18;18.48;;;9.15;;
71973;SDS011;59840;52.122;5.404;2023-01-29T06:17:45;14.80;;;8.23;;
71973;SDS011;59840;52.122;5.404;2023-01-29T06:20:11;14.15;;;8.05;;
71973;SDS011;59840;52.122;5.404;2023-01-29T06:22:38;16.70;;;8.73;;
71973;SDS011;59840;52.122;5.404;2023-01-29T06:25:05;15.93;;;8.80;;
71973;SDS011;59840;52.122;5.404;2023-01-29T06:27:32;16.08;;;8.35;;
71973;SDS011;59840;52.122;5.404;2023-01-29T06:29:59;19.85;;;9.18;;
71973;SDS011;59840;52.122;5.404;2023-01-29T06:32:26;15.43;;;8.32;;
71973;SDS011;59840;52.122;5.404;2023-01-29T06:34:53;16.20;;;8.17;;
71973;SDS011;59840;52.122;5.404;2023-01-29T06:37:19;16.90;;;8.88;;
71973;SDS011;59840;52.122;5.404;2023-01-29T06:39:45;16.52;;;8.30;;
71973;SDS011;59840;52.122;5.404;2023-01-29T06:42:12;15.18;;;8.85;;
71973;SDS011;59840;52.122;5.404;2023-01-29T06:44:39;17.08;;;8.30;;
71973;SDS011;59840;52.122;5.404;2023-01-29T06:47:05;15.93;;;8.63;;
71973;SDS011;59840;52.122;5.404;2023-01-29T06:49:32;15.90;;;8.32;;
71973;SDS011;59840;52.122;5.404;2023-01-29T06:51:58;20.48;;;8.95;;
71973;SDS011;59840;52.122;5.404;2023-01-29T06:54:25;15.18;;;8.65;;
71973;SDS011;59840;52.122;5.404;2023-01-29T06:56:51;17.30;;;8.38;;
71973;SDS011;59840;52.122;5.404;2023-01-29T06:59:18;14.73;;;7.80;;
71973;SDS011;59840;52.122;5.404;2023-01-29T07:01:44;15.10;;;8.10;;
71973;SDS011;59840;52.122;5.404;2023-01-29T07:04:11;17.30;;;8.30;;
71973;SDS011;59840;52.122;5.404;2023-01-29T07:06:38;14.38;;;8.43;;
71973;SDS011;59840;52.122;5.404;2023-01-29T07:09:04;13.90;;;8.13;;
71973;SDS011;59840;52.122;5.404;2023-01-29T07:11:32;16.33;;;8.93;;
71973;SDS011;59840;52.122;5.404;2023-01-29T07:13:59;16.65;;;8.88;;
71973;SDS011;59840;52.122;5.404;2023-01-29T07:16:26;16.20;;;8.68;;
71973;SDS011;59840;52.122;5.404;2023-01-29T07:18:53;14.93;;;8.50;;
71973;SDS011;59840;52.122;5.404;2023-01-29T07:21:19;15.82;;;9.07;;
71973;SDS011;59840;52.122;5.404;2023-01-29T07:23:46;17.00;;;9.03;;
71973;SDS011;59840;52.122;5.404;2023-01-29T07:26:12;14.27;;;7.85;;
71973;SDS011;59840;52.122;5.404;2023-01-29T07:28:39;16.63;;;8.45;;
71973;SDS011;59840;52.122;5.404;2023-01-29T07:31:06;15.48;;;8.52;;
71973;SDS011;59840;52.122;5.404;2023-01-29T07:33:35;16.00;;;8.48;;
71973;SDS011;59840;52.122;5.404;2023-01-29T07:36:01;17.17;;;8.80;;
71973;SDS011;59840;52.122;5.404;2023-01-29T07:38:33;13.27;;;7.57;;
71973;SDS011;59840;52.122;5.404;2023-01-29T07:40:59;13.90;;;8.02;;
71973;SDS011;59840;52.122;5.404;2023-01-29T07:43:28;16.17;;;8.05;;
71973;SDS011;59840;52.122;5.404;2023-01-29T07:45:55;14.35;;;7.90;;
71973;SDS011;59840;52.122;5.404;2023-01-29T07:48:22;16.03;;;8.33;;
71973;SDS011;59840;52.122;5.404;2023-01-29T07:50:55;16.90;;;7.93;;
71973;SDS011;59840;52.122;5.404;2023-01-29T07:53:22;13.98;;;8.25;;
71973;SDS011;59840;52.122;5.404;2023-01-29T07:55:49;13.38;;;8.00;;
71973;SDS011;59840;52.122;5.404;2023-01-29T07:58:15;12.82;;;8.10;;
71973;SDS011;59840;52.122;5.404;2023-01-29T08:00:42;13.53;;;7.87;;
71973;SDS011;59840;52.122;5.404;2023-01-29T08:03:13;16.23;;;8.60;;
71973;SDS011;59840;52.122;5.404;2023-01-29T08:05:45;15.05;;;7.97;;
71973;SDS011;59840;52.122;5.404;2023-01-29T08:08:12;14.82;;;8.07;;
71973;SDS011;59840;52.122;5.404;2023-01-29T08:10:39;15.38;;;8.35;;
71973;SDS011;59840;52.122;5.404;2023-01-29T08:13:07;14.07;;;8.13;;
71973;SDS011;59840;52.122;5.404;2023-01-29T08:15:34;15.18;;;7.88;;
71973;SDS011;59840;52.122;5.404;2023-01-29T08:18:04;12.50;;;8.02;;
71973;SDS011;59840;52.122;5.404;2023-01-29T08:20:31;11.20;;;7.25;;
71973;SDS011;59840;52.122;5.404;2023-01-29T08:22:58;14.15;;;8.32;;
71973;SDS011;59840;52.122;5.404;2023-01-29T08:25:26;15.87;;;7.80;;
71973;SDS011;59840;52.122;5.404;2023-01-29T08:27:54;14.00;;;7.95;;
71973;SDS011;59840;52.122;5.404;2023-01-29T08:30:23;15.23;;;7.68;;
71973;SDS011;59840;52.122;5.404;2023-01-29T08:32:53;12.13;;;6.80;;
71973;SDS011;59840;52.122;5.404;2023-01-29T08:35:20;13.60;;;7.70;;
71973;SDS011;59840;52.122;5.404;2023-01-29T08:37:53;18.67;;;8.33;;
71973;SDS011;59840;52.122;5.404;2023-01-29T08:40:21;16.05;;;8.02;;
71973;SDS011;59840;52.122;5.404;2023-01-29T08:42:49;14.77;;;8.02;;
71973;SDS011;59840;52.122;5.404;2023-01-29T08:45:15;16.30;;;7.30;;
71973;SDS011;59840;52.122;5.404;2023-01-29T08:47:45;13.68;;;7.28;;
71973;SDS011;59840;52.122;5.404;2023-01-29T08:50:14;13.90;;;7.73;;
71973;SDS011;59840;52.122;5.404;2023-01-29T08:52:42;11.18;;;7.30;;
71973;SDS011;59840;52.122;5.404;2023-01-29T08:55:09;16.02;;;8.63;;
71973;SDS011;59840;52.122;5.404;2023-01-29T08:57:36;15.55;;;7.93;;
71973;SDS011;59840;52.122;5.404;2023-01-29T09:00:04;14.77;;;7.95;;
71973;SDS011;59840;52.122;5.404;2023-01-29T09:02:32;12.63;;;7.57;;
71973;SDS011;59840;52.122;5.404;2023-01-29T09:04:58;14.80;;;7.13;;
71973;SDS011;59840;52.122;5.404;2023-01-29T09:07:25;14.52;;;7.72;;
71973;SDS011;59840;52.122;5.404;2023-01-29T09:09:52;15.68;;;7.82;;
71973;SDS011;59840;52.122;5.404;2023-01-29T09:12:18;14.48;;;7.68;;
71973;SDS011;59840;52.122;5.404;2023-01-29T09:14:45;15.20;;;7.87;;
71973;SDS011;59840;52.122;5.404;2023-01-29T09:17:11;12.50;;;7.57;;
71973;SDS011;59840;52.122;5.404;2023-01-29T09:19:38;11.18;;;7.05;;
71973;SDS011;59840;52.122;5.404;2023-01-29T09:22:04;16.60;;;7.63;;
71973;SDS011;59840;52.122;5.404;2023-01-29T09:24:31;11.93;;;7.60;;
71973;SDS011;59840;52.122;5.404;2023-01-29T09:26:58;15.07;;;8.13;;
71973;SDS011;59840;52.122;5.404;2023-01-29T09:29:24;13.27;;;7.45;;
71973;SDS011;59840;52.122;5.404;2023-01-29T09:31:51;12.95;;;7.45;;
71973;SDS011;59840;52.122;5.404;2023-01-29T09:34:18;12.73;;;7.50;;
71973;SDS011;59840;52.122;5.404;2023-01-29T09:36:44;13.27;;;7.70;;
71973;SDS011;59840;52.122;5.404;2023-01-29T09:39:11;12.37;;;6.60;;
71973;SDS011;59840;52.122;5.404;2023-01-29T09:44:11;14.02;;;8.20;;
71973;SDS011;59840;52.122;5.404;2023-01-29T09:46:43;13.48;;;8.07;;
71973;SDS011;59840;52.122;5.404;2023-01-29T09:57:53;15.50;;;8.25;;
71973;SDS011;59840;52.122;5.404;2023-01-29T10:00:24;13.75;;;7.90;;
71973;SDS011;59840;52.122;5.404;2023-01-29T10:23:27;16.58;;;8.48;;
71973;SDS011;59840;52.122;5.404;2023-01-29T10:25:59;12.95;;;7.45;;
71973;SDS011;59840;52.122;5.404;2023-01-29T10:28:33;15.23;;;7.95;;
71973;SDS011;59840;52.122;5.404;2023-01-29T10:31:13;15.60;;;8.48;;
71973;SDS011;59840;52.122;5.404;2023-01-29T10:34:17;15.57;;;8.27;;
71973;SDS011;59840;52.122;5.404;2023-01-29T10:36:41;12.45;;;7.40;;
71973;SDS011;59840;52.122;5.404;2023-01-29T10:39:12;14.02;;;8.02;;
71973;SDS011;59840;52.122;5.404;2023-01-29T10:41:49;12.77;;;7.75;;
71973;SDS011;59840;52.122;5.404;2023-01-29T10:44:59;13.65;;;7.63;;
71973;SDS011;59840;52.122;5.404;2023-01-29T10:50:22;12.50;;;7.70;;
71973;SDS011;59840;52.122;5.404;2023-01-29T11:00:29;14.53;;;7.50;;
71973;SDS011;59840;52.122;5.404;2023-01-29T11:03:07;13.07;;;8.32;;
71973;SDS011;59840;52.122;5.404;2023-01-29T11:08:57;18.77;;;8.52;;
71973;SDS011;59840;52.122;5.404;2023-01-29T11:11:33;15.45;;;8.55;;
71973;SDS011;59840;52.122;5.404;2023-01-29T11:14:09;16.93;;;8.87;;
71973;SDS011;59840;52.122;5.404;2023-01-29T11:16:44;14.43;;;8.50;;
71973;SDS011;59840;52.122;5.404;2023-01-29T11:19:14;15.23;;;7.82;;
71973;SDS011;59840;52.122;5.404;2023-01-29T11:21:57;16.05;;;8.77;;
71973;SDS011;59840;52.122;5.404;2023-01-29T11:24:26;18.77;;;8.80;;
71973;SDS011;59840;52.122;5.404;2023-01-29T11:26:54;15.73;;;9.10;;
71973;SDS011;59840;52.122;5.404;2023-01-29T11:31:55;15.68;;;9.32;;
71973;SDS011;59840;52.122;5.404;2023-01-29T11:34:24;19.45;;;9.90;;
71973;SDS011;59840;52.122;5.404;2023-01-29T11:36:56;18.33;;;9.30;;
71973;SDS011;59840;52.122;5.404;2023-01-29T11:39:24;15.57;;;8.70;;
71973;SDS011;59840;52.122;5.404;2023-01-29T11:41:55;16.77;;;9.05;;
71973;SDS011;59840;52.122;5.404;2023-01-29T11:49:47;18.98;;;9.13;;
71973;SDS011;59840;52.122;5.404;2023-01-29T11:52:16;20.90;;;9.63;;
71973;SDS011;59840;52.122;5.404;2023-01-29T11:57:18;18.38;;;9.75;;
71973;SDS011;59840;52.122;5.404;2023-01-29T11:59:49;20.80;;;9.73;;
71973;SDS011;59840;52.122;5.404;2023-01-29T12:04:53;18.20;;;9.33;;
71973;SDS011;59840;52.122;5.404;2023-01-29T12:07:22;20.23;;;9.75;;
71973;SDS011;59840;52.122;5.404;2023-01-29T12:09:51;17.50;;;10.25;;
71973;SDS011;59840;52.122;5.404;2023-01-29T12:12:29;20.20;;;9.88;;
71973;SDS011;59840;52.122;5.404;2023-01-29T12:17:49;17.93;;;9.37;;
71973;SDS011;59840;52.122;5.404;2023-01-29T12:20:28;18.90;;;9.23;;
71973;SDS011;59840;52.122;5.404;2023-01-29T12:30:39;17.50;;;10.10;;
71973;SDS011;59840;52.122;5.404;2023-01-29T12:36:18;17.23;;;9.50;;
71973;SDS011;59840;52.122;5.404;2023-01-29T12:38:52;19.13;;;9.93;;
71973;SDS011;59840;52.122;5.404;2023-01-29T12:46:48;16.33;;;9.93;;
71973;SDS011;59840;52.122;5.404;2023-01-29T12:49:28;20.13;;;9.82;;
71973;SDS011;59840;52.122;5.404;2023-01-29T12:54:39;19.20;;;9.75;;
71973;SDS011;59840;52.122;5.404;2023-01-29T12:57:27;20.67;;;10.60;;
71973;SDS011;59840;52.122;5.404;2023-01-29T13:00:12;18.60;;;9.93;;
71973;SDS011;59840;52.122;5.404;2023-01-29T13:02:47;21.67;;;10.90;;
71973;SDS011;59840;52.122;5.404;2023-01-29T13:05:21;19.35;;;9.75;;
71973;SDS011;59840;52.122;5.404;2023-01-29T13:08:03;19.50;;;10.20;;
71973;SDS011;59840;52.122;5.404;2023-01-29T13:10:36;20.67;;;10.50;;
71973;SDS011;59840;52.122;5.404;2023-01-29T13:13:15;19.13;;;10.10;;
71973;SDS011;59840;52.122;5.404;2023-01-29T13:15:46;24.45;;;10.77;;
71973;SDS011;59840;52.122;5.404;2023-01-29T13:20:47;22.67;;;11.07;;
71973;SDS011;59840;52.122;5.404;2023-01-29T13:23:20;22.07;;;10.93;;
71973;SDS011;59840;52.122;5.404;2023-01-29T13:25:51;23.83;;;10.25;;
71973;SDS011;59840;52.122;5.404;2023-01-29T13:28:20;21.42;;;10.60;;
71973;SDS011;59840;52.122;5.404;2023-01-29T13:31:08;17.80;;;10.18;;
71973;SDS011;59840;52.122;5.404;2023-01-29T13:33:36;18.95;;;9.85;;
71973;SDS011;59840;52.122;5.404;2023-01-29T13:36:05;18.80;;;10.60;;
71973;SDS011;59840;52.122;5.404;2023-01-29T13:38:41;22.60;;;11.05;;
71973;SDS011;59840;52.122;5.404;2023-01-29T13:41:10;21.60;;;11.05;;
71973;SDS011;59840;52.122;5.404;2023-01-29T13:43:37;20.50;;;10.82;;
71973;SDS011;59840;52.122;5.404;2023-01-29T13:46:10;16.70;;;9.77;;
71973;SDS011;59840;52.122;5.404;2023-01-29T13:48:41;18.90;;;10.40;;
71973;SDS011;59840;52.122;5.404;2023-01-29T13:51:10;21.10;;;11.23;;
71973;SDS011;59840;52.122;5.404;2023-01-29T13:53:42;17.33;;;10.05;;
71973;SDS011;59840;52.122;5.404;2023-01-29T13:56:27;18.73;;;10.23;;
71973;SDS011;59840;52.122;5.404;2023-01-29T13:59:01;19.17;;;9.57;;
71973;SDS011;59840;52.122;5.404;2023-01-29T14:02:18;18.90;;;10.33;;
71973;SDS011;59840;52.122;5.404;2023-01-29T14:06:50;20.70;;;10.50;;
71973;SDS011;59840;52.122;5.404;2023-01-29T14:12:29;20.00;;;10.40;;
71973;SDS011;59840;52.122;5.404;2023-01-29T14:15:00;17.07;;;9.80;;
71973;SDS011;59840;52.122;5.404;2023-01-29T14:17:31;16.42;;;9.60;;
71973;SDS011;59840;52.122;5.404;2023-01-29T14:20:01;18.85;;;9.90;;
71973;SDS011;59840;52.122;5.404;2023-01-29T14:22:41;16.42;;;8.85;;
71973;SDS011;59840;52.122;5.404;2023-01-29T14:25:14;15.50;;;9.23;;
71973;SDS011;59840;52.122;5.404;2023-01-29T14:27:47;17.63;;;10.13;;
71973;SDS011;59840;52.122;5.404;2023-01-29T14:30:15;18.17;;;9.60;;
71973;SDS011;59840;52.122;5.404;2023-01-29T14:32:47;18.42;;;10.10;;
71973;SDS011;59840;52.122;5.404;2023-01-29T14:35:20;21.65;;;10.57;;
71973;SDS011;59840;52.122;5.404;2023-01-29T14:37:49;17.05;;;9.60;;
71973;SDS011;59840;52.122;5.404;2023-01-29T14:40:21;17.47;;;9.90;;
71973;SDS011;59840;52.122;5.404;2023-01-29T14:45:32;16.17;;;9.32;;
71973;SDS011;59840;52.122;5.404;2023-01-29T14:50:38;17.77;;;9.32;;
71973;SDS011;59840;52.122;5.404;2023-01-29T14:55:36;15.90;;;8.93;;
71973;SDS011;59840;52.122;5.404;2023-01-29T14:58:10;17.55;;;9.15;;
71973;SDS011;59840;52.122;5.404;2023-01-29T15:00:41;17.35;;;9.10;;
71973;SDS011;59840;52.122;5.404;2023-01-29T15:03:23;18.00;;;9.52;;
71973;SDS011;59840;52.122;5.404;2023-01-29T15:05:52;15.53;;;8.80;;
71973;SDS011;59840;52.122;5.404;2023-01-29T15:08:25;17.65;;;9.48;;
71973;SDS011;59840;52.122;5.404;2023-01-29T15:11:02;16.35;;;9.30;;
71973;SDS011;59840;52.122;5.404;2023-01-29T15:13:52;16.90;;;8.82;;
71973;SDS011;59840;52.122;5.404;2023-01-29T15:16:29;18.58;;;10.40;;
71973;SDS011;59840;52.122;5.404;2023-01-29T15:19:10;16.90;;;9.10;;
71973;SDS011;59840;52.122;5.404;2023-01-29T15:22:05;19.50;;;9.05;;
71973;SDS011;59840;52.122;5.404;2023-01-29T15:24:34;16.15;;;9.15;;
71973;SDS011;59840;52.122;5.404;2023-01-29T15:27:02;19.70;;;9.82;;
71973;SDS011;59840;52.122;5.404;2023-01-29T15:29:29;16.05;;;8.60;;
71973;SDS011;59840;52.122;5.404;2023-01-29T15:31:56;17.67;;;9.57;;
71973;SDS011;59840;52.122;5.404;2023-01-29T15:34:23;18.63;;;9.50;;
71973;SDS011;59840;52.122;5.404;2023-01-29T15:36:50;19.92;;;9.95;;
71973;SDS011;59840;52.122;5.404;2023-01-29T15:39:18;17.35;;;8.45;;
71973;SDS011;59840;52.122;5.404;2023-01-29T15:41:49;15.65;;;9.07;;
71973;SDS011;59840;52.122;5.404;2023-01-29T15:44:29;25.37;;;11.00;;
71973;SDS011;59840;52.122;5.404;2023-01-29T15:46:57;20.25;;;9.60;;
71973;SDS011;59840;52.122;5.404;2023-01-29T15:49:35;16.63;;;9.18;;
71973;SDS011;59840;52.122;5.404;2023-01-29T15:52:06;17.27;;;9.13;;
71973;SDS011;59840;52.122;5.404;2023-01-29T15:54:39;15.02;;;8.55;;
71973;SDS011;59840;52.122;5.404;2023-01-29T15:57:06;18.47;;;9.47;;
71973;SDS011;59840;52.122;5.404;2023-01-29T15:59:45;15.35;;;8.35;;
71973;SDS011;59840;52.122;5.404;2023-01-29T16:02:17;17.13;;;8.98;;
71973;SDS011;59840;52.122;5.404;2023-01-29T16:04:51;20.60;;;8.73;;
71973;SDS011;59840;52.122;5.404;2023-01-29T16:07:18;15.88;;;8.60;;
71973;SDS011;59840;52.122;5.404;2023-01-29T16:09:46;16.43;;;8.60;;
71973;SDS011;59840;52.122;5.404;2023-01-29T16:12:12;15.98;;;8.00;;
71973;SDS011;59840;52.122;5.404;2023-01-29T16:14:39;16.65;;;8.88;;
71973;SDS011;59840;52.122;5.404;2023-01-29T16:17:24;17.92;;;10.00;;
71973;SDS011;59840;52.122;5.404;2023-01-29T16:19:59;17.25;;;8.65;;
71973;SDS011;59840;52.122;5.404;2023-01-29T16:22:33;16.97;;;8.10;;
71973;SDS011;59840;52.122;5.404;2023-01-29T16:25:03;17.58;;;8.75;;
71973;SDS011;59840;52.122;5.404;2023-01-29T16:27:31;18.50;;;9.20;;
71973;SDS011;59840;52.122;5.404;2023-01-29T16:29:59;17.40;;;8.25;;
71973;SDS011;59840;52.122;5.404;2023-01-29T16:32:28;12.88;;;7.63;;
71973;SDS011;59840;52.122;5.404;2023-01-29T16:34:58;16.30;;;8.33;;
71973;SDS011;59840;52.122;5.404;2023-01-29T16:37:29;14.68;;;7.60;;
71973;SDS011;59840;52.122;5.404;2023-01-29T16:39:58;18.95;;;8.73;;
71973;SDS011;59840;52.122;5.404;2023-01-29T16:42:26;18.73;;;8.52;;
71973;SDS011;59840;52.122;5.404;2023-01-29T16:47:33;17.63;;;8.13;;
71973;SDS011;59840;52.122;5.404;2023-01-29T16:50:22;20.10;;;9.35;;
71973;SDS011;59840;52.122;5.404;2023-01-29T16:52:56;16.27;;;8.57;;
71973;SDS011;59840;52.122;5.404;2023-01-29T16:55:37;17.10;;;9.05;;
71973;SDS011;59840;52.122;5.404;2023-01-29T16:58:15;16.30;;;8.65;;
71973;SDS011;59840;52.122;5.404;2023-01-29T17:00:51;14.97;;;8.10;;
71973;SDS011;59840;52.122;5.404;2023-01-29T17:03:22;19.08;;;9.02;;
71973;SDS011;59840;52.122;5.404;2023-01-29T17:05:51;16.75;;;9.15;;
71973;SDS011;59840;52.122;5.404;2023-01-29T17:08:23;17.75;;;9.10;;
71973;SDS011;59840;52.122;5.404;2023-01-29T17:10:52;19.10;;;8.80;;
71973;SDS011;59840;52.122;5.404;2023-01-29T17:14:02;17.60;;;9.27;;
71973;SDS011;59840;52.122;5.404;2023-01-29T17:16:29;20.83;;;9.38;;
71973;SDS011;59840;52.122;5.404;2023-01-29T17:18:57;19.52;;;9.45;;
71973;SDS011;59840;52.122;5.404;2023-01-29T17:21:24;16.48;;;9.07;;
71973;SDS011;59840;52.122;5.404;2023-01-29T17:23:51;21.17;;;10.20;;
71973;SDS011;59840;52.122;5.404;2023-01-29T17:26:18;17.80;;;9.47;;
71973;SDS011;59840;52.122;5.404;2023-01-29T17:28:47;21.92;;;9.52;;
71973;SDS011;59840;52.122;5.404;2023-01-29T17:31:15;21.52;;;10.15;;
71973;SDS011;59840;52.122;5.404;2023-01-29T17:33:42;18.00;;;9.55;;
71973;SDS011;59840;52.122;5.404;2023-01-29T17:36:13;18.90;;;9.50;;
71973;SDS011;59840;52.122;5.404;2023-01-29T17:38:41;19.43;;;9.40;;
71973;SDS011;59840;52.122;5.404;2023-01-29T17:41:13;21.20;;;9.45;;
71973;SDS011;59840;52.122;5.404;2023-01-29T17:43:50;21.08;;;10.07;;
71973;SDS011;59840;52.122;5.404;2023-01-29T17:46:17;23.10;;;9.27;;